createdAt,value
2023-02-11T00:00:41.109Z,27.50
2023-02-11T00:01:43.054Z,20.65
2023-02-11T00:02:47.910Z,25.55
2023-02-11T00:03:51.308Z,23.90
2023-02-11T00:04:53.300Z,29.52
2023-02-11T00:06:00.576Z,25.98
2023-02-11T00:07:02.804Z,25.35
2023-02-11T00:08:06.059Z,29.10
2023-02-11T00:09:08.545Z,22.95
2023-02-11T00:10:11.538Z,26.80
2023-02-11T00:11:14.960Z,29.88
2023-02-11T00:12:19.601Z,26.15
2023-02-11T00:13:22.003Z,23.25
2023-02-11T00:14:24.973Z,25.42
2023-02-11T00:15:28.278Z,30.80
2023-02-11T00:16:32.948Z,28.10
2023-02-11T00:17:34.987Z,29.83
2023-02-11T00:18:38.118Z,23.88
2023-02-11T00:19:40.166Z,27.02
2023-02-11T00:20:44.076Z,22.33
2023-02-11T00:21:46.034Z,36.80
2023-02-11T00:22:48.888Z,24.30
2023-02-11T00:23:50.947Z,27.58
2023-02-11T00:24:54.113Z,25.73
2023-02-11T00:25:56.002Z,25.05
2023-02-11T00:26:58.952Z,30.20
2023-02-11T00:28:01.026Z,25.42
2023-02-11T00:29:05.207Z,24.08
2023-02-11T00:30:08.370Z,22.35
2023-02-11T00:31:13.318Z,26.30
2023-02-11T00:32:16.344Z,26.90
2023-02-11T00:33:18.309Z,26.60
2023-02-11T00:34:21.304Z,26.00
2023-02-11T00:35:23.547Z,24.48
2023-02-11T00:36:28.829Z,26.80
2023-02-11T00:37:32.283Z,24.25
2023-02-11T00:38:35.385Z,22.73
2023-02-11T00:39:37.284Z,28.38
2023-02-11T00:40:40.358Z,22.70
2023-02-11T00:41:42.245Z,22.50
2023-02-11T00:42:45.093Z,24.52
2023-02-11T00:43:47.293Z,24.35
2023-02-11T00:44:51.392Z,23.00
2023-02-11T00:45:53.593Z,27.23
2023-02-11T00:46:58.011Z,26.33
2023-02-11T00:47:59.935Z,23.02
2023-02-11T00:49:04.412Z,28.13
2023-02-11T00:50:07.608Z,24.48
2023-02-11T00:51:10.954Z,26.92
2023-02-11T00:52:12.918Z,28.42
2023-02-11T00:53:15.920Z,25.35
2023-02-11T00:54:17.832Z,25.33
2023-02-11T00:55:20.799Z,21.40
2023-02-11T00:56:22.978Z,24.13
2023-02-11T00:57:25.837Z,22.15
2023-02-11T00:58:27.896Z,23.95
2023-02-11T00:59:30.942Z,21.30
2023-02-11T01:00:32.948Z,22.83
2023-02-11T01:01:35.971Z,23.25
2023-02-11T01:02:39.346Z,27.45
2023-02-11T01:03:42.534Z,21.27
2023-02-11T01:04:44.670Z,26.63
2023-02-11T01:05:47.811Z,21.27
2023-02-11T01:06:49.780Z,27.88
2023-02-11T01:07:52.694Z,24.17
2023-02-11T01:08:54.544Z,24.60
2023-02-11T01:09:57.905Z,24.42
2023-02-11T01:11:01.691Z,19.60
2023-02-11T01:12:04.897Z,27.58
2023-02-11T01:13:07.586Z,22.02
2023-02-11T01:14:10.986Z,22.88
2023-02-11T01:15:14.746Z,19.13
2023-02-11T01:16:19.201Z,20.08
2023-02-11T01:17:21.178Z,20.52
2023-02-11T01:18:28.315Z,18.98
2023-02-11T01:19:30.291Z,23.65
2023-02-11T01:20:33.328Z,26.05
2023-02-11T01:21:35.305Z,23.50
2023-02-11T01:22:39.620Z,26.25
2023-02-11T01:23:41.606Z,22.67
2023-02-11T01:24:44.592Z,21.02
2023-02-11T01:25:46.595Z,21.88
2023-02-11T01:26:50.730Z,24.63
2023-02-11T01:27:52.697Z,24.88
2023-02-11T01:28:55.648Z,18.45
2023-02-11T01:29:57.625Z,23.27
2023-02-11T01:31:02.079Z,23.25
2023-02-11T01:32:05.395Z,18.83
2023-02-11T01:33:07.389Z,25.15
2023-02-11T01:34:11.731Z,23.60
2023-02-11T01:35:13.679Z,20.42
2023-02-11T01:36:16.597Z,23.00
2023-02-11T01:37:18.522Z,19.10
2023-02-11T01:38:23.443Z,20.88
2023-02-11T01:39:27.869Z,23.05
2023-02-11T01:40:30.774Z,22.50
2023-02-11T01:41:32.678Z,16.88
2023-02-11T01:42:35.741Z,24.45
2023-02-11T01:43:39.590Z,22.67
2023-02-11T01:44:42.730Z,20.45
2023-02-11T01:45:58.982Z,17.80
2023-02-11T01:47:04.711Z,21.13
2023-02-11T01:48:07.454Z,21.73
2023-02-11T01:49:17.376Z,19.70
2023-02-11T01:50:19.365Z,20.30
2023-02-11T01:51:26.417Z,20.63
2023-02-11T01:52:32.165Z,21.63
2023-02-11T01:53:53.551Z,21.40
2023-02-11T01:55:18.346Z,17.40
2023-02-11T01:56:39.543Z,21.98
2023-02-11T01:57:46.535Z,19.23
2023-02-11T01:58:51.617Z,20.08
2023-02-11T02:00:11.915Z,19.13
2023-02-11T02:01:23.120Z,24.50
2023-02-11T02:02:31.283Z,25.42
2023-02-11T02:03:36.339Z,18.00
2023-02-11T02:04:48.138Z,18.15
2023-02-11T02:05:57.302Z,23.30
2023-02-11T02:07:05.287Z,24.00
2023-02-11T02:08:12.638Z,22.70
2023-02-11T02:09:20.572Z,26.30
2023-02-11T02:10:27.635Z,16.17
2023-02-11T02:11:30.077Z,17.88
2023-02-11T02:12:33.093Z,19.92
2023-02-11T02:13:35.496Z,22.27
2023-02-11T02:14:40.451Z,20.35
2023-02-11T02:15:49.773Z,20.40
2023-02-11T02:16:53.413Z,24.00
2023-02-11T02:18:02.531Z,20.25
2023-02-11T02:19:36.890Z,19.35
2023-02-11T02:21:01.664Z,18.58
2023-02-11T02:22:33.019Z,20.73
2023-02-11T02:24:06.844Z,23.55
2023-02-11T02:25:28.262Z,22.80
2023-02-11T02:26:51.782Z,18.55
2023-02-11T02:28:01.025Z,21.85
2023-02-11T02:29:26.275Z,22.77
2023-02-11T02:31:00.034Z,18.70
2023-02-11T02:32:29.783Z,19.73
2023-02-11T02:33:45.792Z,17.30
2023-02-11T02:34:54.104Z,16.23
2023-02-11T02:36:07.766Z,17.38
2023-02-11T02:37:18.240Z,19.08
2023-02-11T02:38:27.719Z,19.40
2023-02-11T02:39:33.886Z,16.90
2023-02-11T02:40:42.372Z,17.73
2023-02-11T02:41:46.392Z,15.60
2023-02-11T02:42:50.766Z,17.50
2023-02-11T02:43:52.992Z,16.42
2023-02-11T02:44:57.334Z,18.42
2023-02-11T02:46:11.069Z,20.17
2023-02-11T02:47:15.341Z,17.10
2023-02-11T02:48:26.767Z,15.82
2023-02-11T02:49:29.672Z,19.63
2023-02-11T02:50:34.956Z,17.08
2023-02-11T02:51:56.868Z,16.27
2023-02-11T02:53:11.085Z,15.50
2023-02-11T02:54:52.596Z,18.42
2023-02-11T02:56:07.597Z,15.25
2023-02-11T02:57:29.970Z,16.70
2023-02-11T02:58:54.375Z,16.75
2023-02-11T03:00:09.757Z,17.90
2023-02-11T03:01:25.608Z,13.50
2023-02-11T03:02:34.741Z,17.42
2023-02-11T03:03:43.333Z,14.60
2023-02-11T03:04:56.568Z,23.58
2023-02-11T03:06:05.125Z,14.70
2023-02-11T03:07:18.622Z,18.42
2023-02-11T03:08:27.197Z,18.23
2023-02-11T03:09:35.055Z,19.85
2023-02-11T03:10:41.540Z,15.48
2023-02-11T03:11:44.553Z,20.13
2023-02-11T03:12:48.516Z,13.45
2023-02-11T03:13:53.305Z,17.25
2023-02-11T03:14:55.255Z,18.40
2023-02-11T03:16:03.215Z,17.85
2023-02-11T03:17:07.254Z,16.48
2023-02-11T03:18:16.558Z,19.52
2023-02-11T03:19:22.044Z,16.35
2023-02-11T03:20:25.002Z,18.50
2023-02-11T03:21:28.490Z,14.65
2023-02-11T03:22:36.176Z,14.65
2023-02-11T03:23:41.277Z,18.33
2023-02-11T03:24:45.562Z,17.23
2023-02-11T03:25:52.139Z,16.95
2023-02-11T03:26:57.601Z,14.30
2023-02-11T03:28:08.285Z,15.30
2023-02-11T03:29:18.927Z,16.33
2023-02-11T03:30:28.604Z,18.52
2023-02-11T03:31:38.119Z,15.18
2023-02-11T03:32:46.323Z,16.83
2023-02-11T03:33:59.699Z,16.27
2023-02-11T03:35:08.263Z,12.75
2023-02-11T03:36:15.881Z,15.10
2023-02-11T03:37:23.011Z,15.35
2023-02-11T03:38:31.636Z,15.80
2023-02-11T03:39:37.855Z,21.00
2023-02-11T03:40:43.629Z,13.90
2023-02-11T03:41:49.827Z,15.43
2023-02-11T03:42:57.213Z,14.80
2023-02-11T03:44:03.185Z,13.23
2023-02-11T03:45:09.316Z,12.63
2023-02-11T03:46:15.237Z,13.73
2023-02-11T03:47:22.714Z,16.40
2023-02-11T03:48:29.115Z,14.75
2023-02-11T03:49:34.612Z,14.20
2023-02-11T03:50:39.020Z,13.75
2023-02-11T03:51:42.744Z,13.52
2023-02-11T03:52:47.046Z,14.32
2023-02-11T03:53:53.825Z,21.80
2023-02-11T03:55:00.277Z,14.18
2023-02-11T03:56:07.344Z,12.38
2023-02-11T03:57:09.507Z,16.10
2023-02-11T03:58:12.576Z,14.45
2023-02-11T03:59:14.549Z,14.13
2023-02-11T04:00:17.685Z,14.63
2023-02-11T04:01:19.819Z,15.88
2023-02-11T04:02:24.392Z,11.35
2023-02-11T04:03:26.364Z,13.77
2023-02-11T04:04:29.323Z,13.65
2023-02-11T04:05:32.831Z,15.95
2023-02-11T04:06:35.748Z,13.35
2023-02-11T04:07:37.667Z,15.00
2023-02-11T04:08:40.648Z,18.88
2023-02-11T04:09:42.733Z,14.15
2023-02-11T04:10:45.673Z,13.40
2023-02-11T04:11:47.622Z,13.40
2023-02-11T04:12:50.561Z,14.02
2023-02-11T04:13:52.482Z,13.88
2023-02-11T04:14:55.374Z,12.98
2023-02-11T04:15:57.311Z,12.40
2023-02-11T04:17:00.219Z,13.43
2023-02-11T04:18:03.397Z,14.73
2023-02-11T04:19:06.317Z,11.05
2023-02-11T04:20:09.356Z,12.10
2023-02-11T04:21:13.565Z,12.02
2023-02-11T04:22:15.474Z,13.48
2023-02-11T04:23:18.461Z,10.88
2023-02-11T04:24:21.834Z,13.32
2023-02-11T04:25:25.919Z,14.52
2023-02-11T04:26:27.924Z,11.45
2023-02-11T04:27:30.933Z,11.95
2023-02-11T04:28:33.017Z,11.77
2023-02-11T04:29:36.124Z,11.10
2023-02-11T04:30:38.137Z,14.50
2023-02-11T04:31:41.276Z,11.73
2023-02-11T04:32:43.377Z,13.00
2023-02-11T04:33:46.288Z,12.77
2023-02-11T04:34:48.448Z,16.38
2023-02-11T04:35:51.564Z,12.43
2023-02-11T04:36:55.892Z,12.85
2023-02-11T04:37:57.940Z,9.80
2023-02-11T04:39:00.780Z,11.45
2023-02-11T04:40:02.985Z,10.88
2023-02-11T04:41:06.351Z,14.70
2023-02-11T04:42:08.276Z,11.07
2023-02-11T04:43:11.278Z,14.60
2023-02-11T04:44:13.185Z,10.13
2023-02-11T04:45:16.252Z,14.13
2023-02-11T04:46:18.193Z,13.20
2023-02-11T04:47:21.136Z,12.80
2023-02-11T04:48:23.080Z,11.20
2023-02-11T04:49:26.321Z,14.70
2023-02-11T04:50:28.254Z,17.05
2023-02-11T04:51:31.087Z,13.20
2023-02-11T04:52:34.527Z,10.60
2023-02-11T04:53:37.462Z,12.10
2023-02-11T04:54:39.632Z,13.38
2023-02-11T04:55:42.676Z,11.48
2023-02-11T04:56:44.639Z,9.85
2023-02-11T04:57:47.814Z,11.60
2023-02-11T04:58:50.369Z,10.32
2023-02-11T04:59:53.232Z,12.85
2023-02-11T05:00:55.201Z,12.38
2023-02-11T05:01:58.135Z,13.30
2023-02-11T05:03:00.030Z,13.07
2023-02-11T05:04:03.194Z,11.30
2023-02-11T05:05:06.111Z,12.95
2023-02-11T05:06:09.310Z,11.27
2023-02-11T05:07:11.288Z,10.30
2023-02-11T05:08:15.530Z,13.43
2023-02-11T05:09:17.764Z,10.20
2023-02-11T05:10:20.577Z,10.60
2023-02-11T05:11:25.032Z,16.33
2023-02-11T05:12:27.970Z,15.02
2023-02-11T05:13:30.477Z,15.35
2023-02-11T05:14:33.715Z,13.70
2023-02-11T05:15:35.581Z,12.32
2023-02-11T05:16:38.523Z,12.25
2023-02-11T05:17:42.206Z,13.48
2023-02-11T05:18:46.326Z,14.02
2023-02-11T05:19:48.242Z,9.90
2023-02-11T05:20:51.234Z,12.05
2023-02-11T05:22:02.702Z,12.23
2023-02-11T05:23:06.584Z,12.38
2023-02-11T05:24:09.923Z,10.93
2023-02-11T05:25:12.860Z,11.10
2023-02-11T05:26:15.225Z,10.52
2023-02-11T05:27:18.101Z,11.63
2023-02-11T05:28:20.084Z,11.88
2023-02-11T05:29:23.564Z,11.43
2023-02-11T05:30:25.668Z,11.55
2023-02-11T05:31:28.557Z,14.00
2023-02-11T05:32:30.422Z,9.82
2023-02-11T05:33:33.543Z,9.70
2023-02-11T05:34:35.580Z,13.40
2023-02-11T05:35:38.443Z,13.07
2023-02-11T05:36:40.565Z,12.50
2023-02-11T05:37:43.735Z,11.85
2023-02-11T05:38:45.621Z,11.40
2023-02-11T05:39:50.036Z,11.38
2023-02-11T05:40:51.900Z,13.95
2023-02-11T05:41:54.933Z,11.65
2023-02-11T05:42:56.852Z,18.60
2023-02-11T05:43:59.722Z,11.65
2023-02-11T05:45:01.666Z,11.60
2023-02-11T05:46:05.216Z,10.00
2023-02-11T05:47:09.003Z,10.55
2023-02-11T05:48:11.878Z,11.82
2023-02-11T05:49:13.754Z,9.30
2023-02-11T05:50:16.652Z,10.43
2023-02-11T05:51:18.612Z,12.25
2023-02-11T05:52:21.559Z,12.98
2023-02-11T05:53:23.644Z,14.77
2023-02-11T05:54:26.464Z,10.27
2023-02-11T05:55:29.750Z,10.65
2023-02-11T05:56:32.592Z,12.32
2023-02-11T05:57:34.632Z,13.02
2023-02-11T05:58:38.692Z,11.25
2023-02-11T05:59:40.982Z,11.55
2023-02-11T06:00:43.978Z,12.23
2023-02-11T06:01:46.054Z,11.60
2023-02-11T06:02:49.052Z,11.00
2023-02-11T06:03:51.358Z,12.30
2023-02-11T06:04:54.293Z,10.73
2023-02-11T06:05:56.194Z,12.02
2023-02-11T06:06:59.092Z,11.35
2023-02-11T06:08:01.140Z,11.43
2023-02-11T06:09:04.244Z,11.35
2023-02-11T06:10:07.381Z,9.50
2023-02-11T06:11:11.654Z,13.05
2023-02-11T06:12:13.787Z,9.95
2023-02-11T06:13:18.642Z,9.10
2023-02-11T06:14:22.094Z,7.70
2023-02-11T06:15:24.961Z,9.43
2023-02-11T06:16:26.929Z,10.70
2023-02-11T06:17:31.728Z,11.82
2023-02-11T06:18:33.699Z,11.27
2023-02-11T06:19:36.769Z,10.50
2023-02-11T06:20:40.823Z,11.50
2023-02-11T06:21:44.610Z,8.50
2023-02-11T06:22:46.690Z,12.43
2023-02-11T06:23:50.025Z,10.05
2023-02-11T06:25:01.225Z,9.45
2023-02-11T06:26:06.125Z,10.75
2023-02-11T06:27:10.447Z,12.30
2023-02-11T06:28:12.367Z,11.68
2023-02-11T06:29:15.298Z,9.90
2023-02-11T06:30:17.334Z,9.98
2023-02-11T06:31:20.347Z,8.77
2023-02-11T06:32:42.177Z,11.45
2023-02-11T06:33:45.403Z,9.20
2023-02-11T06:34:47.454Z,12.32
2023-02-11T06:35:50.717Z,8.05
2023-02-11T06:36:52.804Z,7.72
2023-02-11T06:37:55.705Z,9.13
2023-02-11T06:38:57.623Z,11.68
2023-02-11T06:40:00.572Z,9.50
2023-02-11T06:41:02.634Z,9.10
2023-02-11T06:42:07.903Z,10.18
2023-02-11T06:43:11.341Z,8.55
2023-02-11T06:44:14.332Z,10.98
2023-02-11T06:45:16.489Z,6.90
2023-02-11T06:46:19.481Z,10.95
2023-02-11T06:47:21.373Z,9.38
2023-02-11T06:48:25.050Z,8.95
2023-02-11T06:49:27.074Z,9.00
2023-02-11T06:50:29.946Z,7.97
2023-02-11T06:51:31.854Z,10.40
2023-02-11T06:52:35.254Z,10.73
2023-02-11T06:53:39.287Z,12.32
2023-02-11T06:54:42.198Z,10.82
2023-02-11T06:55:44.058Z,8.80
2023-02-11T06:56:46.952Z,8.85
2023-02-11T06:57:48.985Z,8.88
2023-02-11T06:58:55.833Z,9.95
2023-02-11T06:59:58.000Z,9.25
2023-02-11T07:01:01.941Z,11.40
2023-02-11T07:02:04.004Z,11.02
2023-02-11T07:03:06.967Z,9.90
2023-02-11T07:04:10.057Z,9.70
2023-02-11T07:05:12.032Z,10.80
2023-02-11T07:06:17.561Z,9.75
2023-02-11T07:07:19.568Z,8.77
2023-02-11T07:08:22.402Z,9.52
2023-02-11T07:09:24.344Z,9.07
2023-02-11T07:10:27.240Z,10.07
2023-02-11T07:11:29.870Z,9.52
2023-02-11T07:12:32.889Z,11.02
2023-02-11T07:13:34.781Z,8.05
2023-02-11T07:14:39.236Z,11.00
2023-02-11T07:15:41.155Z,11.23
2023-02-11T07:16:44.200Z,7.40
2023-02-11T07:17:46.152Z,8.52
2023-02-11T07:18:49.593Z,7.38
2023-02-11T07:19:51.482Z,9.82
2023-02-11T07:20:54.584Z,8.25
2023-02-11T07:21:57.626Z,9.27
2023-02-11T07:23:00.158Z,10.68
2023-02-11T07:24:03.376Z,9.88
2023-02-11T07:25:06.189Z,8.45
2023-02-11T07:26:11.057Z,9.52
2023-02-11T07:27:13.175Z,10.32
2023-02-11T07:28:16.150Z,9.18
2023-02-11T07:29:18.059Z,8.38
2023-02-11T07:30:22.901Z,7.95
2023-02-11T07:31:26.787Z,10.52
2023-02-11T07:32:29.878Z,9.25
2023-02-11T07:33:31.781Z,9.95
2023-02-11T07:34:34.882Z,8.57
2023-02-11T07:35:36.850Z,7.32
2023-02-11T07:36:39.753Z,6.97
2023-02-11T07:37:42.615Z,9.15
2023-02-11T07:38:46.128Z,9.18
2023-02-11T07:39:48.048Z,7.50
2023-02-11T07:40:50.941Z,7.55
2023-02-11T07:41:52.887Z,6.80
2023-02-11T07:42:55.720Z,6.88
2023-02-11T07:43:57.579Z,9.63
2023-02-11T07:45:00.592Z,7.65
2023-02-11T07:46:06.080Z,8.88
2023-02-11T07:47:09.006Z,8.32
2023-02-11T07:48:11.256Z,8.63
2023-02-11T07:49:14.276Z,9.27
2023-02-11T07:50:17.195Z,8.30
2023-02-11T07:51:22.230Z,9.75
2023-02-11T07:52:24.353Z,9.40
2023-02-11T07:53:27.245Z,7.90
2023-02-11T07:54:29.255Z,9.32
2023-02-11T07:55:32.179Z,6.65
2023-02-11T07:56:34.592Z,8.35
2023-02-11T07:57:37.501Z,12.82
2023-02-11T07:58:42.086Z,10.45
2023-02-11T07:59:44.990Z,7.22
2023-02-11T08:00:46.931Z,8.43
2023-02-11T08:01:51.665Z,8.68
2023-02-11T08:02:54.639Z,7.97
2023-02-11T08:03:57.742Z,7.18
2023-02-11T08:05:00.701Z,8.02
2023-02-11T08:06:04.144Z,8.25
2023-02-11T08:07:07.188Z,8.95
2023-02-11T08:08:10.046Z,9.40
2023-02-11T08:09:15.789Z,9.85
2023-02-11T08:10:18.940Z,5.75
2023-02-11T08:11:23.859Z,6.78
2023-02-11T08:12:26.862Z,9.95
2023-02-11T08:13:28.753Z,10.93
2023-02-11T08:14:32.752Z,7.72
2023-02-11T08:15:34.717Z,10.98
2023-02-11T08:16:39.882Z,6.88
2023-02-11T08:17:43.546Z,8.43
2023-02-11T08:18:46.479Z,8.73
2023-02-11T08:19:49.331Z,7.10
2023-02-11T08:20:51.612Z,7.13
2023-02-11T08:21:56.974Z,7.00
2023-02-11T08:22:59.169Z,6.90
2023-02-11T08:24:03.126Z,11.38
2023-02-11T08:25:05.858Z,6.13
2023-02-11T08:26:11.116Z,6.72
2023-02-11T08:27:14.046Z,7.22
2023-02-11T08:28:15.939Z,7.53
2023-02-11T08:29:18.893Z,5.55
2023-02-11T08:30:20.861Z,7.70
2023-02-11T08:31:26.401Z,8.13
2023-02-11T08:32:28.399Z,10.02
2023-02-11T08:33:32.636Z,9.82
2023-02-11T08:34:34.625Z,7.30
2023-02-11T08:35:39.862Z,9.45
2023-02-11T08:36:43.433Z,6.70
2023-02-11T08:37:46.340Z,6.80
2023-02-11T08:38:48.392Z,8.52
2023-02-11T08:39:51.302Z,5.78
2023-02-11T08:40:53.250Z,6.65
2023-02-11T08:41:56.704Z,8.70
2023-02-11T08:42:58.640Z,7.00
2023-02-11T08:44:01.969Z,6.80
2023-02-11T08:45:05.767Z,8.10
2023-02-11T08:46:08.736Z,9.80
2023-02-11T08:47:11.663Z,7.53
2023-02-11T08:48:13.576Z,8.05
2023-02-11T08:49:18.047Z,8.52
2023-02-11T08:50:20.194Z,6.13
2023-02-11T08:51:25.693Z,7.53
2023-02-11T08:52:28.655Z,9.30
2023-02-11T08:53:30.586Z,6.95
2023-02-11T08:54:33.924Z,7.43
2023-02-11T08:55:35.990Z,8.65
2023-02-11T08:56:39.266Z,7.30
2023-02-11T08:57:42.237Z,9.88
2023-02-11T08:58:44.528Z,10.57
2023-02-11T08:59:47.730Z,13.85
2023-02-11T09:00:50.229Z,13.57
2023-02-11T09:01:53.495Z,10.98
2023-02-11T09:02:55.686Z,8.90
2023-02-11T09:03:59.986Z,7.70
2023-02-11T09:05:03.316Z,9.70
2023-02-11T09:06:07.539Z,8.90
2023-02-11T09:07:10.474Z,11.02
2023-02-11T09:08:12.800Z,10.05
2023-02-11T09:09:17.425Z,9.93
2023-02-11T09:10:19.507Z,8.70
2023-02-11T09:11:27.367Z,12.18
2023-02-11T09:12:30.265Z,11.63
2023-02-11T09:13:33.272Z,9.88
2023-02-11T09:14:36.380Z,11.70
2023-02-11T09:15:38.644Z,10.90
2023-02-11T09:16:41.516Z,9.32
2023-02-11T09:17:44.466Z,13.25
2023-02-11T09:18:46.805Z,12.02
2023-02-11T09:19:49.707Z,10.10
2023-02-11T09:20:53.173Z,12.57
2023-02-11T09:21:56.318Z,10.88
2023-02-11T09:22:59.315Z,11.55
2023-02-11T09:24:03.761Z,12.07
2023-02-11T09:25:06.453Z,12.55
2023-02-11T09:26:11.356Z,11.57
2023-02-11T09:27:14.309Z,15.73
2023-02-11T09:28:17.301Z,10.13
2023-02-11T09:29:20.180Z,10.55
2023-02-11T09:30:22.290Z,12.93
2023-02-11T09:31:28.127Z,11.32
2023-02-11T09:32:30.208Z,11.68
2023-02-11T09:33:33.660Z,11.30
2023-02-11T09:34:36.536Z,10.38
2023-02-11T09:35:38.606Z,13.95
2023-02-11T09:36:43.218Z,14.77
2023-02-11T09:37:45.207Z,12.13
2023-02-11T09:38:49.648Z,13.35
2023-02-11T09:39:52.579Z,12.63
2023-02-11T09:40:54.768Z,21.17
2023-02-11T09:42:38.896Z,15.18
2023-02-11T09:43:47.599Z,12.88
2023-02-11T09:44:50.994Z,14.73
2023-02-11T09:45:56.481Z,15.18
2023-02-11T09:47:00.665Z,17.52
2023-02-11T09:48:08.408Z,13.77
2023-02-11T09:49:20.032Z,15.10
2023-02-11T09:50:27.628Z,15.65
2023-02-11T09:51:47.218Z,18.50
2023-02-11T09:52:55.258Z,12.20
2023-02-11T09:54:05.864Z,18.42
2023-02-11T09:55:19.710Z,17.95
2023-02-11T09:56:23.585Z,17.08
2023-02-11T09:57:29.950Z,16.52
2023-02-11T09:58:35.382Z,15.18
2023-02-11T09:59:37.311Z,20.73
2023-02-11T10:00:45.968Z,16.17
2023-02-11T10:01:54.335Z,17.13
2023-02-11T10:03:35.600Z,15.68
2023-02-11T10:04:59.486Z,13.55
2023-02-11T10:06:22.980Z,15.80
2023-02-11T10:07:36.355Z,14.07
2023-02-11T10:08:48.580Z,16.08
2023-02-11T10:10:04.419Z,13.60
2023-02-11T10:11:25.995Z,13.77
2023-02-11T10:12:46.533Z,20.33
2023-02-11T10:14:00.204Z,14.20
2023-02-11T10:15:16.753Z,16.48
2023-02-11T10:16:35.019Z,17.58
2023-02-11T10:17:49.161Z,16.02
2023-02-11T10:19:11.231Z,15.98
2023-02-11T10:20:26.521Z,17.42
2023-02-11T10:21:36.705Z,16.55
2023-02-11T10:22:44.189Z,17.65
2023-02-11T10:23:56.053Z,17.10
2023-02-11T10:25:00.905Z,15.15
2023-02-11T10:26:04.706Z,16.25
2023-02-11T10:27:17.512Z,13.48
2023-02-11T10:28:24.702Z,16.02
2023-02-11T10:29:35.535Z,18.83
2023-02-11T10:30:43.654Z,14.48
2023-02-11T10:31:48.701Z,17.65
2023-02-11T10:32:56.587Z,16.65
2023-02-11T10:34:03.141Z,16.60
2023-02-11T10:35:18.014Z,19.27
2023-02-11T10:36:23.851Z,15.88
2023-02-11T10:37:26.810Z,20.08
2023-02-11T10:38:33.058Z,18.45
2023-02-11T10:39:34.938Z,16.83
2023-02-11T10:40:37.905Z,17.30
2023-02-11T10:41:43.669Z,15.25
2023-02-11T10:42:49.929Z,17.40
2023-02-11T10:43:53.326Z,18.48
2023-02-11T10:45:01.184Z,16.08
2023-02-11T10:46:06.755Z,16.15
2023-02-11T10:47:15.725Z,16.70
2023-02-11T10:48:43.128Z,14.98
2023-02-11T10:49:46.982Z,12.95
2023-02-11T10:50:50.227Z,19.15
2023-02-11T10:52:24.530Z,20.23
2023-02-11T10:53:26.523Z,14.18
2023-02-11T10:54:30.790Z,24.90
2023-02-11T10:55:33.941Z,46.38
2023-02-11T10:56:38.569Z,23.55
2023-02-11T10:57:44.851Z,18.55
2023-02-11T10:58:56.621Z,16.83
2023-02-11T11:00:00.499Z,19.58
2023-02-11T11:01:08.019Z,20.15
2023-02-11T11:02:24.059Z,19.60
2023-02-11T11:03:29.916Z,17.45
2023-02-11T11:04:39.835Z,17.92
2023-02-11T11:05:50.822Z,20.60
2023-02-11T11:06:53.037Z,19.15
2023-02-11T11:07:58.180Z,15.57
2023-02-11T11:09:01.208Z,18.33
2023-02-11T11:10:08.615Z,17.85
2023-02-11T11:11:13.146Z,15.18
2023-02-11T11:12:49.113Z,16.13
2023-02-11T11:13:58.296Z,15.18
2023-02-11T11:15:01.918Z,18.67
2023-02-11T11:16:23.856Z,18.48
2023-02-11T11:17:29.036Z,16.05
2023-02-11T11:18:32.033Z,18.15
2023-02-11T11:19:33.888Z,13.90
2023-02-11T11:20:37.990Z,17.00
2023-02-11T11:21:42.868Z,18.25
2023-02-11T11:22:46.183Z,13.02
2023-02-11T11:23:55.561Z,14.68
2023-02-11T11:25:01.501Z,17.33
2023-02-11T11:26:08.636Z,17.08
2023-02-11T11:27:19.239Z,17.80
2023-02-11T11:28:25.239Z,16.95
2023-02-11T11:29:33.862Z,16.42
2023-02-11T11:30:42.776Z,16.38
2023-02-11T11:31:52.933Z,16.02
2023-02-11T11:32:56.577Z,15.48
2023-02-11T11:34:02.032Z,15.73
2023-02-11T11:35:10.067Z,16.00
2023-02-11T11:36:17.093Z,16.13
2023-02-11T11:37:24.567Z,16.58
2023-02-11T11:38:28.444Z,17.20
2023-02-11T11:39:33.827Z,19.77
2023-02-11T11:40:36.379Z,15.98
2023-02-11T11:41:51.441Z,21.67
2023-02-11T11:43:07.731Z,14.50
2023-02-11T11:44:24.644Z,18.92
2023-02-11T11:45:27.427Z,14.25
2023-02-11T11:46:34.030Z,16.58
2023-02-11T11:47:42.983Z,12.27
2023-02-11T11:48:49.756Z,19.95
2023-02-11T11:50:06.671Z,17.67
2023-02-11T11:51:12.698Z,15.07
2023-02-11T11:52:21.723Z,17.38
2023-02-11T11:53:30.437Z,19.50
2023-02-11T11:54:35.465Z,16.65
2023-02-11T11:55:43.280Z,13.75
2023-02-11T11:56:54.512Z,12.23
2023-02-11T11:57:57.657Z,15.95
2023-02-11T11:59:03.624Z,14.15
2023-02-11T12:00:14.674Z,14.77
2023-02-11T12:01:31.541Z,12.05
2023-02-11T12:02:55.048Z,10.75
2023-02-11T12:04:20.412Z,12.57
2023-02-11T12:05:26.871Z,11.30
2023-02-11T12:06:41.032Z,12.90
2023-02-11T12:07:55.270Z,12.85
2023-02-11T12:09:10.797Z,15.73
2023-02-11T12:10:28.831Z,16.42
2023-02-11T12:11:37.952Z,11.82
2023-02-11T12:12:53.465Z,17.23
2023-02-11T12:14:08.888Z,13.30
2023-02-11T12:15:26.274Z,13.23
2023-02-11T12:16:37.525Z,16.08
2023-02-11T12:17:57.415Z,19.70
2023-02-11T12:19:26.690Z,13.57
2023-02-11T12:20:39.561Z,12.95
2023-02-11T12:21:53.895Z,13.07
2023-02-11T12:23:15.565Z,15.82
2023-02-11T12:24:33.504Z,14.95
2023-02-11T12:25:44.065Z,11.07
2023-02-11T12:26:50.060Z,13.75
2023-02-11T12:28:04.194Z,14.68
2023-02-11T12:29:18.115Z,13.48
2023-02-11T12:30:34.528Z,12.25
2023-02-11T12:31:56.058Z,11.55
2023-02-11T12:33:08.946Z,11.20
2023-02-11T12:34:32.567Z,14.30
2023-02-11T12:35:48.328Z,11.15
2023-02-11T12:37:02.954Z,12.88
2023-02-11T12:38:25.139Z,12.10
2023-02-11T12:39:43.715Z,11.23
2023-02-11T12:40:53.452Z,13.73
2023-02-11T12:42:33.703Z,12.63
2023-02-11T12:43:39.418Z,11.68
2023-02-11T12:44:56.965Z,14.55
2023-02-11T12:46:31.693Z,12.73
2023-02-11T12:47:44.867Z,12.57
2023-02-11T12:49:07.023Z,11.48
2023-02-11T12:50:18.108Z,13.30
2023-02-11T12:51:31.987Z,13.75
2023-02-11T12:52:51.515Z,14.07
2023-02-11T12:54:10.999Z,11.13
2023-02-11T12:55:21.906Z,12.15
2023-02-11T12:56:28.305Z,8.20
2023-02-11T12:57:35.413Z,15.57
2023-02-11T12:58:45.318Z,16.55
2023-02-11T12:59:57.411Z,9.70
2023-02-11T13:01:06.146Z,10.73
2023-02-11T13:02:22.032Z,11.15
2023-02-11T13:03:29.684Z,10.63
2023-02-11T13:04:39.655Z,12.38
2023-02-11T13:05:49.368Z,15.45
2023-02-11T13:06:56.819Z,10.73
2023-02-11T13:08:05.837Z,13.23
2023-02-11T13:09:18.883Z,12.13
2023-02-11T13:10:27.008Z,14.13
2023-02-11T13:11:34.093Z,9.55
2023-02-11T13:12:56.728Z,10.90
2023-02-11T13:14:05.400Z,12.10
2023-02-11T13:15:14.159Z,12.02
2023-02-11T13:16:34.328Z,11.55
2023-02-11T13:17:43.601Z,15.23
2023-02-11T13:18:53.511Z,11.90
2023-02-11T13:20:03.592Z,12.70
2023-02-11T13:21:23.278Z,12.27
2023-02-11T13:22:32.172Z,10.30
2023-02-11T13:23:42.667Z,14.27
2023-02-11T13:24:52.768Z,10.43
2023-02-11T13:26:03.608Z,11.50
2023-02-11T13:27:17.221Z,13.15
2023-02-11T13:28:28.099Z,9.85
2023-02-11T13:29:41.173Z,10.43
2023-02-11T13:30:47.483Z,15.57
2023-02-11T13:31:57.706Z,14.80
2023-02-11T13:33:22.599Z,13.13
2023-02-11T13:34:27.696Z,13.80
2023-02-11T13:35:32.403Z,13.40
2023-02-11T13:36:35.296Z,10.48
2023-02-11T13:37:39.021Z,10.95
2023-02-11T13:38:42.188Z,14.38
2023-02-11T13:39:57.858Z,12.43
2023-02-11T13:41:02.750Z,13.05
2023-02-11T13:42:06.122Z,10.15
2023-02-11T13:43:21.983Z,13.30
2023-02-11T13:44:27.604Z,14.15
2023-02-11T13:45:36.402Z,12.45
2023-02-11T13:47:01.348Z,10.88
2023-02-11T13:48:08.235Z,11.02
2023-02-11T13:49:19.719Z,13.52
2023-02-11T13:50:25.052Z,13.82
2023-02-11T13:51:39.359Z,12.60
2023-02-11T13:52:42.739Z,11.70
2023-02-11T13:53:49.551Z,14.52
2023-02-11T13:54:57.327Z,11.70
2023-02-11T13:56:07.913Z,12.60
2023-02-11T13:57:26.393Z,12.30
2023-02-11T13:58:39.825Z,13.57
2023-02-11T13:59:47.388Z,18.83
2023-02-11T14:00:53.179Z,15.50
2023-02-11T14:02:23.523Z,17.77
2023-02-11T14:03:53.312Z,14.80
2023-02-11T14:05:39.510Z,15.10
2023-02-11T14:07:38.447Z,14.65
2023-02-11T14:09:01.512Z,11.30
2023-02-11T14:10:04.581Z,11.20
2023-02-11T14:11:23.681Z,12.43
2023-02-11T14:12:38.248Z,16.20
2023-02-11T14:14:18.647Z,17.05
2023-02-11T14:15:40.028Z,16.55
2023-02-11T14:17:22.658Z,17.15
2023-02-11T14:18:39.877Z,15.30
2023-02-11T14:19:45.229Z,12.25
2023-02-11T14:20:48.969Z,14.52
2023-02-11T14:21:51.168Z,17.60
2023-02-11T14:22:54.711Z,16.23
2023-02-11T14:24:38.101Z,15.95
2023-02-11T14:25:43.362Z,15.27
2023-02-11T14:26:50.131Z,13.68